sensor_id;sensor_type;location;lat;lon;timestamp;temperature;humidity
70867;HTU21D;58487;53.474;49.470;2024-02-21T00:00:53;-14.71;72.38
70867;HTU21D;58487;53.474;49.470;2024-02-21T00:03:20;-14.64;72.45
70867;HTU21D;58487;53.474;49.470;2024-02-21T00:05:46;-14.70;72.94
70867;HTU21D;58487;53.474;49.470;2024-02-21T00:08:12;-14.62;72.94
70867;HTU21D;58487;53.474;49.470;2024-02-21T00:10:38;-14.66;73.20
70867;HTU21D;58487;53.474;49.470;2024-02-21T00:13:04;-14.52;72.99
70867;HTU21D;58487;53.474;49.470;2024-02-21T00:15:30;-14.56;72.12
70867;HTU21D;58487;53.474;49.470;2024-02-21T00:17:56;-14.65;72.30
70867;HTU21D;58487;53.474;49.470;2024-02-21T00:20:22;-14.75;72.03
70867;HTU21D;58487;53.474;49.470;2024-02-21T00:22:48;-14.75;72.35
70867;HTU21D;58487;53.474;49.470;2024-02-21T00:25:14;-14.85;72.23
70867;HTU21D;58487;53.474;49.470;2024-02-21T00:27:40;-14.88;72.08
70867;HTU21D;58487;53.474;49.470;2024-02-21T00:30:07;-14.98;72.67
70867;HTU21D;58487;53.474;49.470;2024-02-21T00:32:33;-15.19;73.07
70867;HTU21D;58487;53.474;49.470;2024-02-21T00:35:02;-15.31;73.80
70867;HTU21D;58487;53.474;49.470;2024-02-21T00:37:28;-15.38;74.53
70867;HTU21D;58487;53.474;49.470;2024-02-21T00:39:54;-15.40;74.80
70867;HTU21D;58487;53.474;49.470;2024-02-21T00:42:20;-15.47;75.14
70867;HTU21D;58487;53.474;49.470;2024-02-21T00:44:47;-15.41;75.75
70867;HTU21D;58487;53.474;49.470;2024-02-21T00:47:13;-15.40;74.64
70867;HTU21D;58487;53.474;49.470;2024-02-21T00:49:39;-15.47;74.89
70867;HTU21D;58487;53.474;49.470;2024-02-21T00:52:05;-15.38;74.94
70867;HTU21D;58487;53.474;49.470;2024-02-21T00:54:31;-15.44;73.72
70867;HTU21D;58487;53.474;49.470;2024-02-21T00:56:57;-15.40;74.30
70867;HTU21D;58487;53.474;49.470;2024-02-21T00:59:23;-15.37;73.46
70867;HTU21D;58487;53.474;49.470;2024-02-21T01:01:49;-15.43;73.19
70867;HTU21D;58487;53.474;49.470;2024-02-21T01:04:15;-15.44;73.77
70867;HTU21D;58487;53.474;49.470;2024-02-21T01:06:41;-15.49;72.71
70867;HTU21D;58487;53.474;49.470;2024-02-21T01:09:10;-15.46;72.70
70867;HTU21D;58487;53.474;49.470;2024-02-21T01:11:37;-15.67;73.37
70867;HTU21D;58487;53.474;49.470;2024-02-21T01:14:03;-15.68;74.10
70867;HTU21D;58487;53.474;49.470;2024-02-21T01:16:29;-15.76;74.28
70867;HTU21D;58487;53.474;49.470;2024-02-21T01:18:55;-15.64;73.72
70867;HTU21D;58487;53.474;49.470;2024-02-21T01:21:21;-15.75;73.73
70867;HTU21D;58487;53.474;49.470;2024-02-21T01:23:47;-15.85;74.33
70867;HTU21D;58487;53.474;49.470;2024-02-21T01:26:13;-15.84;73.75
70867;HTU21D;58487;53.474;49.470;2024-02-21T01:28:41;-15.94;73.77
70867;HTU21D;58487;53.474;49.470;2024-02-21T01:31:07;-16.00;73.53
70867;HTU21D;58487;53.474;49.470;2024-02-21T01:33:33;-16.04;73.79
70867;HTU21D;58487;53.474;49.470;2024-02-21T01:36:05;-16.06;73.99
70867;HTU21D;58487;53.474;49.470;2024-02-21T01:38:34;-16.09;73.81
70867;HTU21D;58487;53.474;49.470;2024-02-21T01:41:00;-16.03;73.72
70867;HTU21D;58487;53.474;49.470;2024-02-21T01:43:26;-16.03;73.42
70867;HTU21D;58487;53.474;49.470;2024-02-21T01:45:54;-16.02;73.34
70867;HTU21D;58487;53.474;49.470;2024-02-21T01:48:24;-15.98;73.08
70867;HTU21D;58487;53.474;49.470;2024-02-21T01:50:52;-15.99;72.45
70867;HTU21D;58487;53.474;49.470;2024-02-21T01:53:32;-16.13;72.18
70867;HTU21D;58487;53.474;49.470;2024-02-21T01:56:01;-16.18;72.57
70867;HTU21D;58487;53.474;49.470;2024-02-21T01:58:29;-16.14;72.80
70867;HTU21D;58487;53.474;49.470;2024-02-21T02:00:56;-16.03;72.04
70867;HTU21D;58487;53.474;49.470;2024-02-21T02:03:23;-16.13;72.84
70867;HTU21D;58487;53.474;49.470;2024-02-21T02:05:51;-16.12;73.10
70867;HTU21D;58487;53.474;49.470;2024-02-21T02:08:18;-16.05;73.06
70867;HTU21D;58487;53.474;49.470;2024-02-21T02:10:45;-15.96;72.56
70867;HTU21D;58487;53.474;49.470;2024-02-21T02:13:11;-15.94;72.30
70867;HTU21D;58487;53.474;49.470;2024-02-21T02:15:45;-15.90;72.12
70867;HTU21D;58487;53.474;49.470;2024-02-21T02:18:12;-15.88;72.74
70867;HTU21D;58487;53.474;49.470;2024-02-21T02:20:38;-15.87;71.93
70867;HTU21D;58487;53.474;49.470;2024-02-21T02:23:31;-15.89;72.03
70867;HTU21D;58487;53.474;49.470;2024-02-21T02:26:00;-15.85;71.33
70867;HTU21D;58487;53.474;49.470;2024-02-21T02:28:29;-15.90;70.61
70867;HTU21D;58487;53.474;49.470;2024-02-21T02:30:55;-15.90;70.66
70867;HTU21D;58487;53.474;49.470;2024-02-21T02:33:21;-15.96;70.88
70867;HTU21D;58487;53.474;49.470;2024-02-21T02:35:47;-15.90;70.96
70867;HTU21D;58487;53.474;49.470;2024-02-21T02:38:13;-15.95;70.42
70867;HTU21D;58487;53.474;49.470;2024-02-21T02:40:39;-15.94;70.32
70867;HTU21D;58487;53.474;49.470;2024-02-21T02:43:08;-15.94;69.58
70867;HTU21D;58487;53.474;49.470;2024-02-21T02:45:35;-16.19;68.91
70867;HTU21D;58487;53.474;49.470;2024-02-21T02:48:01;-16.29;69.97
70867;HTU21D;58487;53.474;49.470;2024-02-21T02:50:27;-16.30;70.50
70867;HTU21D;58487;53.474;49.470;2024-02-21T02:52:54;-16.44;71.13
70867;HTU21D;58487;53.474;49.470;2024-02-21T02:55:20;-16.38;70.98
70867;HTU21D;58487;53.474;49.470;2024-02-21T02:57:46;-16.33;70.77
70867;HTU21D;58487;53.474;49.470;2024-02-21T03:00:14;-16.24;70.60
70867;HTU21D;58487;53.474;49.470;2024-02-21T03:02:43;-16.24;70.26
70867;HTU21D;58487;53.474;49.470;2024-02-21T03:05:29;-16.35;70.70
70867;HTU21D;58487;53.474;49.470;2024-02-21T03:07:55;-16.42;70.64
70867;HTU21D;58487;53.474;49.470;2024-02-21T03:10:21;-16.55;71.34
70867;HTU21D;58487;53.474;49.470;2024-02-21T03:12:47;-16.50;71.61
70867;HTU21D;58487;53.474;49.470;2024-02-21T03:15:14;-16.39;71.33
70867;HTU21D;58487;53.474;49.470;2024-02-21T03:17:40;-16.38;70.77
70867;HTU21D;58487;53.474;49.470;2024-02-21T03:20:07;-16.37;70.76
70867;HTU21D;58487;53.474;49.470;2024-02-21T03:22:37;-16.38;70.90
70867;HTU21D;58487;53.474;49.470;2024-02-21T03:25:04;-16.53;71.79
70867;HTU21D;58487;53.474;49.470;2024-02-21T03:27:30;-16.46;72.20
70867;HTU21D;58487;53.474;49.470;2024-02-21T03:29:56;-16.55;72.22
70867;HTU21D;58487;53.474;49.470;2024-02-21T03:32:22;-16.48;71.87
70867;HTU21D;58487;53.474;49.470;2024-02-21T03:34:48;-16.59;71.06
70867;HTU21D;58487;53.474;49.470;2024-02-21T03:37:14;-16.51;70.60
70867;HTU21D;58487;53.474;49.470;2024-02-21T03:39:41;-16.50;70.43
70867;HTU21D;58487;53.474;49.470;2024-02-21T03:42:10;-16.59;70.25
70867;HTU21D;58487;53.474;49.470;2024-02-21T03:44:36;-16.68;70.77
70867;HTU21D;58487;53.474;49.470;2024-02-21T03:47:03;-16.72;71.09
70867;HTU21D;58487;53.474;49.470;2024-02-21T03:49:29;-16.71;71.32
70867;HTU21D;58487;53.474;49.470;2024-02-21T03:51:55;-16.76;71.80
70867;HTU21D;58487;53.474;49.470;2024-02-21T03:54:21;-16.76;72.36
70867;HTU21D;58487;53.474;49.470;2024-02-21T03:56:47;-16.62;71.96
70867;HTU21D;58487;53.474;49.470;2024-02-21T03:59:14;-16.55;71.71
70867;HTU21D;58487;53.474;49.470;2024-02-21T04:01:40;-16.40;71.35
70867;HTU21D;58487;53.474;49.470;2024-02-21T04:04:07;-16.33;71.43
70867;HTU21D;58487;53.474;49.470;2024-02-21T04:06:33;-16.33;71.42
70867;HTU21D;58487;53.474;49.470;2024-02-21T04:08:59;-16.37;71.69
70867;HTU21D;58487;53.474;49.470;2024-02-21T04:11:25;-16.41;71.74
70867;HTU21D;58487;53.474;49.470;2024-02-21T04:13:51;-16.39;71.57
70867;HTU21D;58487;53.474;49.470;2024-02-21T04:16:17;-16.29;71.50
70867;HTU21D;58487;53.474;49.470;2024-02-21T04:18:44;-16.43;71.51
70867;HTU21D;58487;53.474;49.470;2024-02-21T04:21:10;-16.51;71.73
70867;HTU21D;58487;53.474;49.470;2024-02-21T04:23:36;-16.49;71.55
70867;HTU21D;58487;53.474;49.470;2024-02-21T04:26:02;-16.37;72.02
70867;HTU21D;58487;53.474;49.470;2024-02-21T04:28:28;-16.26;70.88
70867;HTU21D;58487;53.474;49.470;2024-02-21T04:30:54;-16.23;70.22
70867;HTU21D;58487;53.474;49.470;2024-02-21T04:33:20;-16.25;70.44
70867;HTU21D;58487;53.474;49.470;2024-02-21T04:35:46;-16.12;70.43
70867;HTU21D;58487;53.474;49.470;2024-02-21T04:38:13;-16.05;70.03
70867;HTU21D;58487;53.474;49.470;2024-02-21T04:40:40;-16.08;70.02
70867;HTU21D;58487;53.474;49.470;2024-02-21T04:43:06;-16.02;70.18
70867;HTU21D;58487;53.474;49.470;2024-02-21T04:45:32;-15.85;69.40
70867;HTU21D;58487;53.474;49.470;2024-02-21T04:47:58;-15.92;67.95
70867;HTU21D;58487;53.474;49.470;2024-02-21T04:50:24;-15.91;68.00
70867;HTU21D;58487;53.474;49.470;2024-02-21T04:52:50;-15.92;67.93
70867;HTU21D;58487;53.474;49.470;2024-02-21T04:55:16;-15.89;67.98
70867;HTU21D;58487;53.474;49.470;2024-02-21T04:57:42;-15.68;67.49
70867;HTU21D;58487;53.474;49.470;2024-02-21T05:00:08;-15.68;67.30
70867;HTU21D;58487;53.474;49.470;2024-02-21T05:02:35;-15.58;67.41
70867;HTU21D;58487;53.474;49.470;2024-02-21T05:05:01;-15.63;67.94
70867;HTU21D;58487;53.474;49.470;2024-02-21T05:07:28;-15.66;68.22
70867;HTU21D;58487;53.474;49.470;2024-02-21T05:09:54;-15.82;69.40
70867;HTU21D;58487;53.474;49.470;2024-02-21T05:12:20;-15.80;69.89
70867;HTU21D;58487;53.474;49.470;2024-02-21T05:14:46;-15.65;68.89
70867;HTU21D;58487;53.474;49.470;2024-02-21T05:17:12;-15.83;68.91
70867;HTU21D;58487;53.474;49.470;2024-02-21T05:19:38;-15.78;69.84
70867;HTU21D;58487;53.474;49.470;2024-02-21T05:22:04;-15.58;69.79
70867;HTU21D;58487;53.474;49.470;2024-02-21T05:24:30;-15.44;68.34
70867;HTU21D;58487;53.474;49.470;2024-02-21T05:26:57;-15.23;68.04
70867;HTU21D;58487;53.474;49.470;2024-02-21T05:29:23;-14.95;67.65
70867;HTU21D;58487;53.474;49.470;2024-02-21T05:34:19;-14.77;67.88
70867;HTU21D;58487;53.474;49.470;2024-02-21T05:36:45;-14.79;67.27
70867;HTU21D;58487;53.474;49.470;2024-02-21T05:39:12;-14.70;67.13
70867;HTU21D;58487;53.474;49.470;2024-02-21T05:41:38;-14.66;67.07
70867;HTU21D;58487;53.474;49.470;2024-02-21T05:44:04;-14.73;67.11
70867;HTU21D;58487;53.474;49.470;2024-02-21T05:46:30;-14.59;67.44
70867;HTU21D;58487;53.474;49.470;2024-02-21T05:48:56;-14.46;67.23
70867;HTU21D;58487;53.474;49.470;2024-02-21T05:51:22;-14.25;66.38
70867;HTU21D;58487;53.474;49.470;2024-02-21T05:53:48;-14.02;65.61
70867;HTU21D;58487;53.474;49.470;2024-02-21T05:56:14;-13.90;65.53
70867;HTU21D;58487;53.474;49.470;2024-02-21T05:58:43;-13.70;65.18
70867;HTU21D;58487;53.474;49.470;2024-02-21T06:01:09;-13.69;65.57
70867;HTU21D;58487;53.474;49.470;2024-02-21T06:03:35;-13.45;65.04
70867;HTU21D;58487;53.474;49.470;2024-02-21T06:06:04;-13.37;65.24
70867;HTU21D;58487;53.474;49.470;2024-02-21T06:08:31;-13.40;65.66
70867;HTU21D;58487;53.474;49.470;2024-02-21T06:10:57;-13.36;65.75
70867;HTU21D;58487;53.474;49.470;2024-02-21T06:13:26;-13.25;65.77
70867;HTU21D;58487;53.474;49.470;2024-02-21T06:15:53;-13.14;66.33
70867;HTU21D;58487;53.474;49.470;2024-02-21T06:18:20;-12.93;65.70
70867;HTU21D;58487;53.474;49.470;2024-02-21T06:20:46;-12.72;64.92
70867;HTU21D;58487;53.474;49.470;2024-02-21T06:23:15;-12.56;64.54
70867;HTU21D;58487;53.474;49.470;2024-02-21T06:25:41;-12.51;64.60
70867;HTU21D;58487;53.474;49.470;2024-02-21T06:28:07;-12.37;64.13
70867;HTU21D;58487;53.474;49.470;2024-02-21T06:30:33;-12.23;63.11
70867;HTU21D;58487;53.474;49.470;2024-02-21T06:32:59;-12.29;63.31
70867;HTU21D;58487;53.474;49.470;2024-02-21T06:35:26;-12.15;63.53
70867;HTU21D;58487;53.474;49.470;2024-02-21T06:37:52;-12.00;63.02
70867;HTU21D;58487;53.474;49.470;2024-02-21T06:40:21;-11.95;62.41
70867;HTU21D;58487;53.474;49.470;2024-02-21T06:42:47;-11.88;62.43
70867;HTU21D;58487;53.474;49.470;2024-02-21T06:45:14;-11.78;62.54
70867;HTU21D;58487;53.474;49.470;2024-02-21T06:47:41;-11.74;62.41
70867;HTU21D;58487;53.474;49.470;2024-02-21T06:50:07;-11.64;62.74
70867;HTU21D;58487;53.474;49.470;2024-02-21T06:52:35;-11.55;62.31
70867;HTU21D;58487;53.474;49.470;2024-02-21T06:55:01;-11.53;61.83
70867;HTU21D;58487;53.474;49.470;2024-02-21T06:57:28;-11.47;61.90
70867;HTU21D;58487;53.474;49.470;2024-02-21T06:59:55;-11.36;62.45
70867;HTU21D;58487;53.474;49.470;2024-02-21T07:02:21;-11.24;62.39
70867;HTU21D;58487;53.474;49.470;2024-02-21T07:04:47;-11.14;62.44
70867;HTU21D;58487;53.474;49.470;2024-02-21T07:07:13;-10.96;62.33
70867;HTU21D;58487;53.474;49.470;2024-02-21T07:09:39;-10.87;62.53
70867;HTU21D;58487;53.474;49.470;2024-02-21T07:12:05;-10.78;62.18
70867;HTU21D;58487;53.474;49.470;2024-02-21T07:14:35;-10.57;61.79
70867;HTU21D;58487;53.474;49.470;2024-02-21T07:17:02;-10.46;60.96
70867;HTU21D;58487;53.474;49.470;2024-02-21T07:19:29;-10.33;61.12
70867;HTU21D;58487;53.474;49.470;2024-02-21T07:21:55;-10.25;60.89
70867;HTU21D;58487;53.474;49.470;2024-02-21T07:24:22;-10.01;59.53
70867;HTU21D;58487;53.474;49.470;2024-02-21T07:26:48;-10.57;60.34
70867;HTU21D;58487;53.474;49.470;2024-02-21T07:29:14;-11.66;61.87
70867;HTU21D;58487;53.474;49.470;2024-02-21T07:31:41;-11.93;63.15
70867;HTU21D;58487;53.474;49.470;2024-02-21T07:34:07;-11.62;62.14
70867;HTU21D;58487;53.474;49.470;2024-02-21T07:36:33;-11.67;61.97
70867;HTU21D;58487;53.474;49.470;2024-02-21T07:38:59;-11.81;62.08
70867;HTU21D;58487;53.474;49.470;2024-02-21T07:41:26;-12.14;62.89
70867;HTU21D;58487;53.474;49.470;2024-02-21T07:43:52;-12.33;63.92
70867;HTU21D;58487;53.474;49.470;2024-02-21T07:46:18;-12.04;63.57
70867;HTU21D;58487;53.474;49.470;2024-02-21T07:48:48;-12.03;63.47
70867;HTU21D;58487;53.474;49.470;2024-02-21T07:51:14;-12.04;63.31
70867;HTU21D;58487;53.474;49.470;2024-02-21T07:53:42;-12.06;62.86
70867;HTU21D;58487;53.474;49.470;2024-02-21T07:56:11;-12.20;63.53
70867;HTU21D;58487;53.474;49.470;2024-02-21T07:58:37;-12.32;63.53
70867;HTU21D;58487;53.474;49.470;2024-02-21T08:01:03;-12.32;63.76
70867;HTU21D;58487;53.474;49.470;2024-02-21T08:03:29;-12.43;63.91
70867;HTU21D;58487;53.474;49.470;2024-02-21T08:05:55;-12.44;63.85
70867;HTU21D;58487;53.474;49.470;2024-02-21T08:08:21;-12.30;64.94
70867;HTU21D;58487;53.474;49.470;2024-02-21T08:10:48;-12.17;64.63
70867;HTU21D;58487;53.474;49.470;2024-02-21T08:13:14;-12.13;63.53
70867;HTU21D;58487;53.474;49.470;2024-02-21T08:15:41;-12.12;64.72
70867;HTU21D;58487;53.474;49.470;2024-02-21T08:18:08;-12.23;63.77
70867;HTU21D;58487;53.474;49.470;2024-02-21T08:20:34;-12.11;63.77
70867;HTU21D;58487;53.474;49.470;2024-02-21T08:23:01;-12.06;64.77
70867;HTU21D;58487;53.474;49.470;2024-02-21T08:25:27;-12.12;62.76
70867;HTU21D;58487;53.474;49.470;2024-02-21T08:27:58;-12.10;63.16
70867;HTU21D;58487;53.474;49.470;2024-02-21T08:30:25;-11.78;65.01
70867;HTU21D;58487;53.474;49.470;2024-02-21T08:32:51;-11.52;63.24
70867;HTU21D;58487;53.474;49.470;2024-02-21T08:35:17;-11.40;62.88
70867;HTU21D;58487;53.474;49.470;2024-02-21T08:37:44;-11.24;62.82
70867;HTU21D;58487;53.474;49.470;2024-02-21T08:40:14;-11.19;61.31
70867;HTU21D;58487;53.474;49.470;2024-02-21T08:42:43;-11.31;62.04
70867;HTU21D;58487;53.474;49.470;2024-02-21T08:45:10;-11.51;59.93
70867;HTU21D;58487;53.474;49.470;2024-02-21T08:47:38;-11.64;61.08
70867;HTU21D;58487;53.474;49.470;2024-02-21T08:50:05;-11.61;61.26
70867;HTU21D;58487;53.474;49.470;2024-02-21T08:52:31;-11.23;63.65
70867;HTU21D;58487;53.474;49.470;2024-02-21T08:54:58;-10.85;63.78
70867;HTU21D;58487;53.474;49.470;2024-02-21T08:57:24;-10.45;62.69
70867;HTU21D;58487;53.474;49.470;2024-02-21T08:59:50;-10.73;60.61
70867;HTU21D;58487;53.474;49.470;2024-02-21T09:02:16;-10.46;60.15
70867;HTU21D;58487;53.474;49.470;2024-02-21T09:04:42;-10.19;60.41
70867;HTU21D;58487;53.474;49.470;2024-02-21T09:07:10;-10.00;59.64
70867;HTU21D;58487;53.474;49.470;2024-02-21T09:09:36;-9.97;58.62
70867;HTU21D;58487;53.474;49.470;2024-02-21T09:12:06;-9.84;57.58
70867;HTU21D;58487;53.474;49.470;2024-02-21T09:14:33;-9.61;56.87
70867;HTU21D;58487;53.474;49.470;2024-02-21T09:16:59;-9.61;56.68
70867;HTU21D;58487;53.474;49.470;2024-02-21T09:19:25;-9.53;55.77
70867;HTU21D;58487;53.474;49.470;2024-02-21T09:21:51;-9.32;54.86
70867;HTU21D;58487;53.474;49.470;2024-02-21T09:24:18;-9.34;55.13
70867;HTU21D;58487;53.474;49.470;2024-02-21T09:26:44;-9.79;56.34
70867;HTU21D;58487;53.474;49.470;2024-02-21T09:29:10;-9.34;57.61
70867;HTU21D;58487;53.474;49.470;2024-02-21T09:31:36;-9.14;56.22
70867;HTU21D;58487;53.474;49.470;2024-02-21T09:34:04;-8.94;54.52
70867;HTU21D;58487;53.474;49.470;2024-02-21T09:36:31;-9.45;54.36
70867;HTU21D;58487;53.474;49.470;2024-02-21T09:38:57;-10.12;57.06
70867;HTU21D;58487;53.474;49.470;2024-02-21T09:41:26;-10.31;58.16
70867;HTU21D;58487;53.474;49.470;2024-02-21T09:43:56;-9.85;58.77
70867;HTU21D;58487;53.474;49.470;2024-02-21T09:46:50;-9.24;57.77
70867;HTU21D;58487;53.474;49.470;2024-02-21T09:49:30;-8.87;54.97
70867;HTU21D;58487;53.474;49.470;2024-02-21T09:51:58;-8.55;55.31
70867;HTU21D;58487;53.474;49.470;2024-02-21T09:54:27;-8.03;55.47
70867;HTU21D;58487;53.474;49.470;2024-02-21T09:56:53;-6.91;52.98
70867;HTU21D;58487;53.474;49.470;2024-02-21T09:59:19;-6.33;49.98
70867;HTU21D;58487;53.474;49.470;2024-02-21T10:01:46;-6.63;49.50
70867;HTU21D;58487;53.474;49.470;2024-02-21T10:04:15;-6.17;49.80
70867;HTU21D;58487;53.474;49.470;2024-02-21T10:06:41;-6.55;50.21
70867;HTU21D;58487;53.474;49.470;2024-02-21T10:09:08;-5.61;48.48
70867;HTU21D;58487;53.474;49.470;2024-02-21T10:11:34;-4.57;44.65
70867;HTU21D;58487;53.474;49.470;2024-02-21T10:14:08;-3.86;43.22
70867;HTU21D;58487;53.474;49.470;2024-02-21T10:16:34;-3.40;42.53
70867;HTU21D;58487;53.474;49.470;2024-02-21T10:19:00;-3.06;40.26
70867;HTU21D;58487;53.474;49.470;2024-02-21T10:21:26;-2.89;40.24
70867;HTU21D;58487;53.474;49.470;2024-02-21T10:23:52;-2.76;39.96
70867;HTU21D;58487;53.474;49.470;2024-02-21T10:26:19;-2.45;39.68
70867;HTU21D;58487;53.474;49.470;2024-02-21T10:28:46;-2.20;39.63
70867;HTU21D;58487;53.474;49.470;2024-02-21T10:31:24;-2.04;39.83
70867;HTU21D;58487;53.474;49.470;2024-02-21T10:33:55;-2.04;39.14
70867;HTU21D;58487;53.474;49.470;2024-02-21T10:36:22;-2.04;39.64
70867;HTU21D;58487;53.474;49.470;2024-02-21T10:38:48;-1.88;38.93
70867;HTU21D;58487;53.474;49.470;2024-02-21T10:41:15;-2.16;39.81
70867;HTU21D;58487;53.474;49.470;2024-02-21T10:43:49;-2.47;39.87
70867;HTU21D;58487;53.474;49.470;2024-02-21T10:46:19;-2.71;40.69
70867;HTU21D;58487;53.474;49.470;2024-02-21T10:48:47;-2.72;40.05
70867;HTU21D;58487;53.474;49.470;2024-02-21T10:51:18;-3.31;40.95
70867;HTU21D;58487;53.474;49.470;2024-02-21T10:56:33;-4.51;44.53
70867;HTU21D;58487;53.474;49.470;2024-02-21T10:59:04;-4.96;45.66
70867;HTU21D;58487;53.474;49.470;2024-02-21T11:01:31;-5.44;46.89
70867;HTU21D;58487;53.474;49.470;2024-02-21T11:04:11;-5.57;46.61
70867;HTU21D;58487;53.474;49.470;2024-02-21T11:06:41;-5.65;47.23
70867;HTU21D;58487;53.474;49.470;2024-02-21T11:09:09;-5.70;47.66
70867;HTU21D;58487;53.474;49.470;2024-02-21T11:11:40;-5.64;47.47
70867;HTU21D;58487;53.474;49.470;2024-02-21T11:14:11;-5.76;47.82
70867;HTU21D;58487;53.474;49.470;2024-02-21T11:16:41;-5.62;47.59
70867;HTU21D;58487;53.474;49.470;2024-02-21T11:19:09;-5.71;47.45
70867;HTU21D;58487;53.474;49.470;2024-02-21T11:21:37;-5.83;47.60
70867;HTU21D;58487;53.474;49.470;2024-02-21T11:24:04;-5.88;48.95
70867;HTU21D;58487;53.474;49.470;2024-02-21T11:26:31;-5.81;48.11
70867;HTU21D;58487;53.474;49.470;2024-02-21T11:28:59;-5.63;47.53
70867;HTU21D;58487;53.474;49.470;2024-02-21T11:31:26;-5.49;46.98
70867;HTU21D;58487;53.474;49.470;2024-02-21T11:33:55;-5.07;45.92
70867;HTU21D;58487;53.474;49.470;2024-02-21T11:36:26;-5.45;46.29
70867;HTU21D;58487;53.474;49.470;2024-02-21T11:38:53;-5.58;46.78
70867;HTU21D;58487;53.474;49.470;2024-02-21T11:41:19;-5.29;46.07
70867;HTU21D;58487;53.474;49.470;2024-02-21T11:43:49;-5.03;45.53
70867;HTU21D;58487;53.474;49.470;2024-02-21T11:46:16;-5.19;45.89
70867;HTU21D;58487;53.474;49.470;2024-02-21T11:48:43;-5.02;45.64
70867;HTU21D;58487;53.474;49.470;2024-02-21T11:51:25;-4.84;45.41
70867;HTU21D;58487;53.474;49.470;2024-02-21T11:53:52;-4.66;44.62
70867;HTU21D;58487;53.474;49.470;2024-02-21T11:56:19;-4.35;43.84
70867;HTU21D;58487;53.474;49.470;2024-02-21T11:58:46;-4.22;43.42
70867;HTU21D;58487;53.474;49.470;2024-02-21T12:01:15;-4.34;43.58
70867;HTU21D;58487;53.474;49.470;2024-02-21T12:03:42;-4.34;43.82
70867;HTU21D;58487;53.474;49.470;2024-02-21T12:06:08;-4.55;44.29
70867;HTU21D;58487;53.474;49.470;2024-02-21T12:08:42;-4.14;44.00
70867;HTU21D;58487;53.474;49.470;2024-02-21T12:11:22;-3.69;42.99
70867;HTU21D;58487;53.474;49.470;2024-02-21T12:14:03;-3.64;41.59
70867;HTU21D;58487;53.474;49.470;2024-02-21T12:16:32;-3.46;41.88
70867;HTU21D;58487;53.474;49.470;2024-02-21T12:19:01;-3.15;41.29
70867;HTU21D;58487;53.474;49.470;2024-02-21T12:21:33;-2.83;40.26
70867;HTU21D;58487;53.474;49.470;2024-02-21T12:24:21;-3.02;41.00
70867;HTU21D;58487;53.474;49.470;2024-02-21T12:26:47;-3.31;42.39
70867;HTU21D;58487;53.474;49.470;2024-02-21T12:29:14;-3.50;42.71
70867;HTU21D;58487;53.474;49.470;2024-02-21T12:31:40;-4.06;44.25
70867;HTU21D;58487;53.474;49.470;2024-02-21T12:34:06;-3.98;44.23
70867;HTU21D;58487;53.474;49.470;2024-02-21T12:36:40;-4.19;44.84
70867;HTU21D;58487;53.474;49.470;2024-02-21T12:39:08;-4.00;44.57
70867;HTU21D;58487;53.474;49.470;2024-02-21T12:41:35;-4.08;44.62
70867;HTU21D;58487;53.474;49.470;2024-02-21T12:44:05;-4.19;44.93
70867;HTU21D;58487;53.474;49.470;2024-02-21T12:46:33;-4.16;44.77
70867;HTU21D;58487;53.474;49.470;2024-02-21T12:49:00;-4.21;44.95
70867;HTU21D;58487;53.474;49.470;2024-02-21T12:51:26;-4.31;44.82
70867;HTU21D;58487;53.474;49.470;2024-02-21T12:53:52;-4.08;43.89
70867;HTU21D;58487;53.474;49.470;2024-02-21T12:56:18;-4.44;45.48
70867;HTU21D;58487;53.474;49.470;2024-02-21T12:58:44;-4.41;44.78
70867;HTU21D;58487;53.474;49.470;2024-02-21T13:01:10;-4.27;44.58
70867;HTU21D;58487;53.474;49.470;2024-02-21T13:03:36;-3.87;43.40
70867;HTU21D;58487;53.474;49.470;2024-02-21T13:06:04;-4.15;44.57
70867;HTU21D;58487;53.474;49.470;2024-02-21T13:08:30;-3.55;42.54
70867;HTU21D;58487;53.474;49.470;2024-02-21T13:10:56;-3.06;40.80
70867;HTU21D;58487;53.474;49.470;2024-02-21T13:13:22;-2.97;40.07
70867;HTU21D;58487;53.474;49.470;2024-02-21T13:15:48;-3.11;40.71
70867;HTU21D;58487;53.474;49.470;2024-02-21T13:18:14;-3.05;40.04
70867;HTU21D;58487;53.474;49.470;2024-02-21T13:20:40;-3.25;40.45
70867;HTU21D;58487;53.474;49.470;2024-02-21T13:23:06;-3.48;41.34
70867;HTU21D;58487;53.474;49.470;2024-02-21T13:25:33;-3.86;42.35
70867;HTU21D;58487;53.474;49.470;2024-02-21T13:27:59;-4.31;43.64
70867;HTU21D;58487;53.474;49.470;2024-02-21T13:30:25;-4.57;44.63
70867;HTU21D;58487;53.474;49.470;2024-02-21T13:32:52;-5.10;46.29
70867;HTU21D;58487;53.474;49.470;2024-02-21T13:35:18;-5.33;47.42
70867;HTU21D;58487;53.474;49.470;2024-02-21T13:37:44;-5.54;47.63
70867;HTU21D;58487;53.474;49.470;2024-02-21T13:40:11;-5.76;48.04
70867;HTU21D;58487;53.474;49.470;2024-02-21T13:42:37;-6.04;48.66
70867;HTU21D;58487;53.474;49.470;2024-02-21T13:45:04;-6.17;49.25
70867;HTU21D;58487;53.474;49.470;2024-02-21T13:47:34;-6.57;50.55
70867;HTU21D;58487;53.474;49.470;2024-02-21T13:50:02;-6.91;51.42
70867;HTU21D;58487;53.474;49.470;2024-02-21T13:52:30;-7.11;52.06
70867;HTU21D;58487;53.474;49.470;2024-02-21T13:54:57;-7.29;52.97
70867;HTU21D;58487;53.474;49.470;2024-02-21T13:57:23;-7.48;53.36
70867;HTU21D;58487;53.474;49.470;2024-02-21T13:59:49;-7.94;54.84
70867;HTU21D;58487;53.474;49.470;2024-02-21T14:02:16;-8.19;55.70
70867;HTU21D;58487;53.474;49.470;2024-02-21T14:04:42;-8.49;56.83
70867;HTU21D;58487;53.474;49.470;2024-02-21T14:07:08;-8.59;57.48
70867;HTU21D;58487;53.474;49.470;2024-02-21T14:09:35;-8.72;58.15
70867;HTU21D;58487;53.474;49.470;2024-02-21T14:12:01;-8.99;58.51
70867;HTU21D;58487;53.474;49.470;2024-02-21T14:14:27;-9.05;59.64
70867;HTU21D;58487;53.474;49.470;2024-02-21T14:16:53;-9.60;60.61
70867;HTU21D;58487;53.474;49.470;2024-02-21T14:19:22;-9.90;61.66
70867;HTU21D;58487;53.474;49.470;2024-02-21T14:21:48;-10.16;63.09
70867;HTU21D;58487;53.474;49.470;2024-02-21T14:24:14;-10.35;63.76
70867;HTU21D;58487;53.474;49.470;2024-02-21T14:26:40;-10.46;64.28
70867;HTU21D;58487;53.474;49.470;2024-02-21T14:29:07;-10.62;64.47
70867;HTU21D;58487;53.474;49.470;2024-02-21T14:31:33;-10.49;64.51
70867;HTU21D;58487;53.474;49.470;2024-02-21T14:33:59;-10.57;64.56
70867;HTU21D;58487;53.474;49.470;2024-02-21T14:36:26;-10.61;64.87
70867;HTU21D;58487;53.474;49.470;2024-02-21T14:38:52;-10.74;65.33
70867;HTU21D;58487;53.474;49.470;2024-02-21T14:41:19;-10.81;65.27
70867;HTU21D;58487;53.474;49.470;2024-02-21T14:43:45;-10.77;64.72
70867;HTU21D;58487;53.474;49.470;2024-02-21T14:46:12;-10.96;65.42
70867;HTU21D;58487;53.474;49.470;2024-02-21T14:48:38;-11.12;65.85
70867;HTU21D;58487;53.474;49.470;2024-02-21T14:51:05;-11.29;66.19
70867;HTU21D;58487;53.474;49.470;2024-02-21T14:53:31;-11.37;66.51
70867;HTU21D;58487;53.474;49.470;2024-02-21T14:55:57;-11.40;66.89
70867;HTU21D;58487;53.474;49.470;2024-02-21T14:58:26;-11.59;66.90